Alpine Moment — VREV7 — position and weather

sailwx.info

Track history (hours):
 
Tides and Currents Weather Stations Pressure Air Temp Water Temp Dewpoint Dewpoint Depression Visibility Wind Speed Wind Dir Waves Ship Positions

Alpine Moment

Last reported at 2015-Aug-07 09:27 UTC. Time now 2015-Sep-02 16:57 UTC.
Position S 29°00' E 032°35'.
Warning: this ship's position is 26 days out of date.

Length 183 m; draft 7.5 m.

Type: Tanker. MMSI: 477185800.

Date/timePositionNaut miles runAvg speedWind from/ knotsBaromVisibWave heightAir tempDewpointWater temp
2015-Aug-07 09:27S 29°00' E 032°35'5611.4
2015-Aug-07 04:33S 29°32' E 031°42'1212.3
2015-Aug-07 03:34S 29°38' E 031°30'1212.1
2015-Aug-07 02:34S 29°45' E 031°19'1212.4
2015-Aug-07 01:33S 29°50' E 031°06'4 4.1
2015-Aug-07 00:31S 29°53' E 031°02'0 0.0
2015-Aug-06 23:31S 29°53' E 031°02'0 0.0
2015-Aug-06 22:31S 29°53' E 031°02'0 0.0
2015-Aug-06 21:31S 29°53' E 031°02'0 0.0
2015-Aug-06 20:31S 29°53' E 031°02'0 0.0
2015-Aug-06 19:31S 29°53' E 031°02'0 0.0
2015-Aug-06 18:31S 29°53' E 031°02'0 0.0
2015-Aug-06 17:31S 29°53' E 031°02'0 0.0
2015-Aug-06 16:31S 29°53' E 031°02'0 0.0
2015-Aug-06 15:31S 29°53' E 031°02'0 0.0
2015-Aug-06 14:28S 29°53' E 031°02'0 0.0
2015-Aug-06 13:31S 29°53' E 031°02'0 0.0
2015-Aug-06 12:31S 29°53' E 031°02'0 0.0
2015-Aug-06 11:31S 29°53' E 031°02'0 0.0
2015-Aug-06 10:31S 29°53' E 031°02'0 0.0
2015-Aug-06 09:31S 29°53' E 031°02'0 0.0
2015-Aug-06 08:31S 29°53' E 031°02'0 0.0
2015-Aug-06 07:31S 29°53' E 031°02'0 0.0
2015-Aug-06 06:31S 29°53' E 031°02'0 0.0
2015-Aug-06 05:28S 29°53' E 031°02'0 0.0
2015-Aug-06 04:31S 29°53' E 031°02'0 0.0
2015-Aug-06 03:31S 29°53' E 031°02'0 0.0
2015-Aug-06 02:31S 29°53' E 031°02'0 0.0
2015-Aug-06 01:31S 29°53' E 031°02'0 0.0
2015-Aug-06 00:31S 29°53' E 031°02'0 0.0
2015-Aug-05 23:31S 29°53' E 031°02'0 0.0
2015-Aug-05 22:31S 29°53' E 031°02'0 0.1
2015-Aug-05 21:33S 29°53' E 031°02'7 6.8
2015-Aug-05 20:33S 29°50' E 031°09'5 4.9
2015-Aug-05 19:33S 29°51' E 031°14'4 4.2
2015-Aug-05 18:33S 29°48' E 031°10'1 0.7
2015-Aug-05 17:33S 29°49' E 031°10'3 3.2
2015-Aug-05 16:33S 29°49' E 031°13'5 4.8
2015-Aug-05 15:33S 29°47' E 031°19'1 1.5
2015-Aug-05 14:33S 29°48' E 031°18'1 1.4
2015-Aug-05 13:33S 29°49' E 031°17'1 1.3
2015-Aug-05 12:33S 29°50' E 031°16'1 0.6
2015-Aug-05 11:33S 29°51' E 031°15'1 1.3
2015-Aug-05 10:33S 29°49' E 031°15'2 1.6
2015-Aug-05 09:33S 29°50' E 031°17'1 1.1
2015-Aug-05 08:33S 29°51' E 031°18'3 2.6
2015-Aug-05 07:33S 29°49' E 031°16'1 1.4
2015-Aug-05 06:33S 29°50' E 031°17'1 1.3
2015-Aug-05 05:33S 29°51' E 031°18'1 1.0
2015-Aug-05 04:33S 29°52' E 031°18'4 4.5
2015-Aug-05 03:33S 29°48' E 031°20'1 1.3
2015-Aug-05 02:33S 29°49' E 031°20'1 1.3
2015-Aug-05 01:33S 29°50' E 031°21'1 0.9
2015-Aug-05 00:33S 29°50' E 031°20'1 1.5
2015-Aug-04 23:33S 29°51' E 031°19'4 3.9
2015-Aug-04 22:33S 29°49' E 031°15'2 2.0
2015-Aug-04 21:33S 29°51' E 031°16'2 1.8
2015-Aug-04 20:33S 29°52' E 031°17'5 5.4
2015-Aug-04 19:33S 29°58' E 031°18'6 6.1
2015-Aug-04 18:33S 30°04' E 031°19'1 0.8
2015-Aug-04 17:33S 30°03' E 031°19'1 1.1
2015-Aug-04 16:33S 30°02' E 031°19'1 1.2
2015-Aug-04 15:31S 30°01' E 031°19'1 1.1
2015-Aug-04 14:31S 29°60' E 031°19'1 1.0
2015-Aug-04 13:31S 29°59' E 031°19'1 1.1
2015-Aug-04 12:31S 29°58' E 031°19'1 1.0
2015-Aug-04 11:31S 29°57' E 031°19'1 1.0
2015-Aug-04 10:31S 29°56' E 031°20'1 1.0
2015-Aug-04 09:31S 29°55' E 031°19'1 1.0
2015-Aug-04 08:31S 29°54' E 031°19'1 1.1
2015-Aug-04 07:31S 29°53' E 031°19'1 1.1
2015-Aug-04 06:33S 29°52' E 031°19'1 1.1
2015-Aug-04 05:33S 29°51' E 031°19'1 1.1
2015-Aug-04 04:33S 29°49' E 031°20'1 1.0
2015-Aug-04 03:34S 29°49' E 031°20'1 0.9
2015-Aug-04 02:33S 29°48' E 031°20'1 0.9
2015-Aug-04 01:33S 29°47' E 031°20'1 0.8
2015-Aug-04 00:33S 29°46' E 031°20'1 0.9
2015-Aug-03 23:34S 29°45' E 031°20'1 0.8
2015-Aug-03 22:33S 29°44' E 031°20'1 0.7
2015-Aug-03 21:34S 29°44' E 031°20'2 2.4
2015-Aug-03 20:34S 29°46' E 031°20'6 5.6
2015-Aug-03 19:33S 29°51' E 031°20'5 5.4
2015-Aug-03 18:34S 29°57' E 031°20'1 0.5
2015-Aug-03 17:33S 29°57' E 031°19'1 0.9
2015-Aug-03 16:34S 29°56' E 031°19'1 0.8
2015-Aug-03 15:34S 29°55' E 031°19'1 0.9
2015-Aug-03 14:33S 29°54' E 031°20'1 0.9
2015-Aug-03 13:34S 29°54' E 031°20'1 0.8
2015-Aug-03 12:33S 29°53' E 031°21'1 0.8
2015-Aug-03 11:34S 29°52' E 031°21'1 0.8
2015-Aug-03 10:33S 29°51' E 031°22'1 0.9
2015-Aug-03 09:34S 29°51' E 031°22'1 0.8
2015-Aug-03 08:34S 29°50' E 031°22'1 0.9
2015-Aug-03 07:34S 29°49' E 031°23'1 0.9
2015-Aug-03 06:34S 29°48' E 031°23'1 0.9
2015-Aug-03 05:33S 29°47' E 031°23'1 1.0
2015-Aug-03 04:34S 29°46' E 031°23'1 1.1
2015-Aug-03 03:33S 29°45' E 031°23'1 1.2
2015-Aug-03 02:33S 29°44' E 031°23'1 1.2
2015-Aug-03 01:34S 29°43' E 031°22'4 4.3
2015-Aug-03 00:34S 29°44' E 031°17'1 0.8
2015-Aug-02 23:33S 29°45' E 031°18'1 1.5
2015-Aug-02 22:34S 29°45' E 031°20'3 3.1
2015-Aug-02 21:33S 29°48' E 031°21'4 4.1
2015-Aug-02 20:33S 29°51' E 031°23'1 0.5
2015-Aug-02 19:33S 29°52' E 031°22'2 1.9
2015-Aug-02 18:34S 29°50' E 031°22'2 1.8
2015-Aug-02 17:33S 29°48' E 031°22'2 1.7
2015-Aug-02 16:33S 29°47' E 031°22'2 1.6
2015-Aug-02 15:33S 29°45' E 031°22'1 1.3
2015-Aug-02 14:33S 29°44' E 031°22'1 1.1
2015-Aug-02 13:33S 29°43' E 031°23'1 0.9
2015-Aug-02 12:33S 29°42' E 031°23'1 0.7
2015-Aug-02 11:34S 29°41' E 031°24'0 0.5
2015-Aug-02 10:33S 29°41' E 031°24'0 0.3
2015-Aug-02 09:33S 29°41' E 031°24'0 0.1
2015-Aug-02 08:34S 29°41' E 031°24'0 0.5
2015-Aug-02 07:33S 29°41' E 031°24'1 0.5
2015-Aug-02 06:33S 29°41' E 031°23'1 0.7
2015-Aug-02 05:34S 29°42' E 031°22'1 0.5
2015-Aug-02 04:33S 29°42' E 031°22'1 0.6
2015-Aug-02 03:34S 29°42' E 031°21'1 0.5
2015-Aug-02 02:33S 29°43' E 031°21'0 0.4
2015-Aug-02 01:33S 29°43' E 031°20'3 3.3
2015-Aug-02 00:33S 29°40' E 031°23'1 1.2
2015-Aug-01 23:34S 29°39' E 031°24'1 0.9
2015-Aug-01 22:34S 29°40' E 031°23'1 1.0
2015-Aug-01 21:33S 29°41' E 031°23'1 1.1
2015-Aug-01 20:34S 29°42' E 031°22'1 1.1
2015-Aug-01 19:31S 29°43' E 031°21'1 0.8
2015-Aug-01 18:31S 29°43' E 031°20'2 2.2
2015-Aug-01 17:32S 29°41' E 031°20'1 0.7
2015-Aug-01 16:32S 29°42' E 031°20'1 0.7
2015-Aug-01 15:29S 29°42' E 031°20'0 0.4
2015-Aug-01 14:34S 29°42' E 031°20'2 2.3
2015-Aug-01 13:33S 29°40' E 031°22'1 1.1
2015-Aug-01 12:32S 29°41' E 031°21'1 1.2
2015-Aug-01 11:32S 29°42' E 031°21'1 1.5
2015-Aug-01 10:34S 29°44' E 031°20'2 2.4
2015-Aug-01 09:33S 29°46' E 031°20'6 5.7
2015-Aug-01 08:33S 29°52' E 031°21'6 5.8
2015-Aug-01 07:33S 29°58' E 031°21'6 5.9
2015-Aug-01 06:34S 30°03' E 031°20'6 5.7
2015-Aug-01 05:33S 30°09' E 031°18'6 5.5
2015-Aug-01 04:33S 30°14' E 031°18'5 5.4
2015-Aug-01 03:33S 30°20' E 031°17'6 2.1
2015-Aug-01 00:32S 30°14' E 031°16'3 3.2
2015-Jul-31 23:31S 30°10' E 031°15'2 2.5
2015-Jul-31 22:33S 30°08' E 031°15'2 2.4
2015-Jul-31 21:33S 30°05' E 031°15'4 3.9
2015-Jul-31 20:33S 30°01' E 031°15'5 5.1
2015-Jul-31 19:34S 29°56' E 031°15'5 4.9
2015-Jul-31 18:33S 29°52' E 031°15'6 5.5
2015-Jul-31 17:34S 29°46' E 031°15'4 4.1
2015-Jul-31 16:31S 29°43' E 031°12'0 0.1
2015-Jul-31 15:31S 29°43' E 031°12'0 0.1
2015-Jul-31 14:25S 29°42' E 031°12'0 0.0
2015-Jul-31 13:31S 29°42' E 031°12'0 0.1
2015-Jul-31 12:31S 29°43' E 031°12'0 0.0
2015-Jul-31 11:32S 29°43' E 031°12'0 0.1
2015-Jul-31 10:32S 29°43' E 031°12'0 0.1
2015-Jul-31 09:30S 29°43' E 031°12'0 0.0
2015-Jul-31 08:33S 29°43' E 031°12'0 0.1
2015-Jul-31 07:32S 29°43' E 031°12'0 0.0
2015-Jul-31 06:29S 29°42' E 031°12'0 0.1
2015-Jul-31 05:32S 29°43' E 031°12'0 0.1
2015-Jul-31 04:32S 29°42' E 031°12'0 0.0
2015-Jul-31 03:32S 29°43' E 031°12'0 0.1
2015-Jul-31 02:32S 29°43' E 031°12'0 0.0
2015-Jul-31 01:32S 29°43' E 031°12'0 0.0
2015-Jul-31 00:32S 29°43' E 031°12'0 0.0
2015-Jul-30 23:32S 29°43' E 031°12'0 0.0
2015-Jul-30 22:32S 29°43' E 031°12'0 0.0
2015-Jul-30 21:32S 29°43' E 031°12'0 0.0
2015-Jul-30 20:32S 29°43' E 031°12'0 0.0
2015-Jul-30 19:29S 29°43' E 031°12'0 0.0
2015-Jul-30 18:32S 29°43' E 031°12'0 0.0
2015-Jul-30 17:32S 29°43' E 031°12'0 0.0
2015-Jul-30 16:32S 29°43' E 031°12'0 0.0
2015-Jul-30 15:32S 29°43' E 031°12'0 0.0
2015-Jul-30 14:32S 29°43' E 031°12'0 0.0
2015-Jul-30 13:32S 29°43' E 031°12'0 0.0
2015-Jul-30 12:32S 29°43' E 031°12'0 0.0
2015-Jul-30 11:32S 29°43' E 031°12'0 0.0
2015-Jul-30 10:32S 29°43' E 031°12'0 0.0
2015-Jul-30 09:32S 29°43' E 031°12'0 0.0
2015-Jul-30 08:32S 29°43' E 031°12'0 0.0
2015-Jul-30 07:32S 29°43' E 031°12'0 0.0
2015-Jul-30 06:32S 29°43' E 031°12'0 0.0
2015-Jul-30 05:32S 29°43' E 031°12'0 0.0
2015-Jul-30 04:32S 29°43' E 031°12'0 0.0
2015-Jul-30 03:32S 29°43' E 031°12'0 0.0
2015-Jul-30 02:32S 29°43' E 031°12'0 0.0
2015-Jul-30 01:32S 29°43' E 031°12'0 0.0
2015-Jul-30 00:32S 29°42' E 031°12'0 0.0
2015-Jul-29 23:32S 29°43' E 031°12'0 0.0
2015-Jul-29 22:32S 29°43' E 031°12'0 0.0
2015-Jul-29 21:29S 29°43' E 031°12'0 0.0
2015-Jul-29 20:32S 29°42' E 031°12'0 0.0
2015-Jul-29 19:32S 29°43' E 031°12'0 0.0
2015-Jul-29 18:32S 29°42' E 031°12'0 0.3
2015-Jul-29 17:32S 29°43' E 031°12'0 0.0
2015-Jul-29 16:32S 29°43' E 031°12'0 0.0
2015-Jul-29 15:32S 29°43' E 031°12'0 0.0
2015-Jul-29 14:32S 29°43' E 031°12'0 0.0
2015-Jul-29 13:32S 29°43' E 031°12'0 0.0
2015-Jul-29 12:32S 29°43' E 031°12'0 0.0
2015-Jul-29 11:29S 29°43' E 031°12'0 0.0
2015-Jul-29 10:32S 29°43' E 031°12'0 0.0
2015-Jul-29 09:32S 29°43' E 031°12'0 0.0
2015-Jul-29 08:32S 29°43' E 031°12'0 0.0
2015-Jul-29 07:32S 29°43' E 031°12'0 0.0
2015-Jul-29 06:32S 29°43' E 031°12'0 0.0
2015-Jul-29 05:32S 29°43' E 031°12'0 0.0
2015-Jul-29 04:32S 29°43' E 031°12'0 0.0
2015-Jul-29 03:32S 29°43' E 031°12'0 0.0
2015-Jul-29 02:29S 29°43' E 031°12'0 0.0
2015-Jul-29 01:32S 29°43' E 031°12'0 0.0
2015-Jul-29 00:32S 29°43' E 031°12'0 0.0
2015-Jul-28 23:32S 29°43' E 031°12'0 0.0
2015-Jul-28 22:32S 29°43' E 031°12'0 0.0
2015-Jul-28 21:32S 29°43' E 031°12'0 0.0
2015-Jul-28 20:32S 29°43' E 031°12'0 0.0
2015-Jul-28 19:32S 29°43' E 031°12'0 0.0
2015-Jul-28 18:32S 29°43' E 031°12'0 0.0
2015-Jul-28 17:32S 29°43' E 031°12'0 0.0
2015-Jul-28 16:32S 29°43' E 031°12'0 0.0
2015-Jul-28 15:29S 29°43' E 031°12'0 0.0
2015-Jul-28 14:32S 29°43' E 031°12'0 0.0
2015-Jul-28 13:32S 29°43' E 031°12'0 0.0
2015-Jul-28 12:32S 29°43' E 031°12'0 0.0
2015-Jul-28 11:32S 29°43' E 031°12'0 0.0
2015-Jul-28 10:32S 29°43' E 031°12'2 1.8
2015-Jul-28 09:33S 29°43' E 031°14'  
Track history (hours):
 
Tides and Currents Weather Stations Pressure Air Temp Water Temp Dewpoint Dewpoint Depression Visibility Wind Speed Wind Dir Waves Ship Positions

Alpine Moment

Last reported at 2015-Aug-07 09:27 UTC. Time now 2015-Sep-02 16:57 UTC.
Position S 29°00' E 032°35'.
Warning: this ship's position is 26 days out of date.

Length 183 m; draft 7.5 m.

Type: Tanker. MMSI: 477185800.

Date/timePositionNaut miles runAvg speedWind from/ knotsBaromVisibWave heightAir tempDewpointWater temp
2015-Aug-07 09:27S 29°00' E 032°35'5611.4
2015-Aug-07 04:33S 29°32' E 031°42'1212.3
2015-Aug-07 03:34S 29°38' E 031°30'1212.1
2015-Aug-07 02:34S 29°45' E 031°19'1212.4
2015-Aug-07 01:33S 29°50' E 031°06'4 4.1
2015-Aug-07 00:31S 29°53' E 031°02'0 0.0
2015-Aug-06 23:31S 29°53' E 031°02'0 0.0
2015-Aug-06 22:31S 29°53' E 031°02'0 0.0
2015-Aug-06 21:31S 29°53' E 031°02'0 0.0
2015-Aug-06 20:31S 29°53' E 031°02'0 0.0
2015-Aug-06 19:31S 29°53' E 031°02'0 0.0
2015-Aug-06 18:31S 29°53' E 031°02'0 0.0
2015-Aug-06 17:31S 29°53' E 031°02'0 0.0
2015-Aug-06 16:31S 29°53' E 031°02'0 0.0
2015-Aug-06 15:31S 29°53' E 031°02'0 0.0
2015-Aug-06 14:28S 29°53' E 031°02'0 0.0
2015-Aug-06 13:31S 29°53' E 031°02'0 0.0
2015-Aug-06 12:31S 29°53' E 031°02'0 0.0
2015-Aug-06 11:31S 29°53' E 031°02'0 0.0
2015-Aug-06 10:31S 29°53' E 031°02'0 0.0
2015-Aug-06 09:31S 29°53' E 031°02'0 0.0
2015-Aug-06 08:31S 29°53' E 031°02'0 0.0
2015-Aug-06 07:31S 29°53' E 031°02'0 0.0
2015-Aug-06 06:31S 29°53' E 031°02'0 0.0
2015-Aug-06 05:28S 29°53' E 031°02'0 0.0
2015-Aug-06 04:31S 29°53' E 031°02'0 0.0
2015-Aug-06 03:31S 29°53' E 031°02'0 0.0
2015-Aug-06 02:31S 29°53' E 031°02'0 0.0
2015-Aug-06 01:31S 29°53' E 031°02'0 0.0
2015-Aug-06 00:31S 29°53' E 031°02'0 0.0
2015-Aug-05 23:31S 29°53' E 031°02'0 0.0
2015-Aug-05 22:31S 29°53' E 031°02'0 0.1
2015-Aug-05 21:33S 29°53' E 031°02'7 6.8
2015-Aug-05 20:33S 29°50' E 031°09'5 4.9
2015-Aug-05 19:33S 29°51' E 031°14'4 4.2
2015-Aug-05 18:33S 29°48' E 031°10'1 0.7
2015-Aug-05 17:33S 29°49' E 031°10'3 3.2
2015-Aug-05 16:33S 29°49' E 031°13'5 4.8
2015-Aug-05 15:33S 29°47' E 031°19'1 1.5
2015-Aug-05 14:33S 29°48' E 031°18'1 1.4
2015-Aug-05 13:33S 29°49' E 031°17'1 1.3
2015-Aug-05 12:33S 29°50' E 031°16'1 0.6
2015-Aug-05 11:33S 29°51' E 031°15'1 1.3
2015-Aug-05 10:33S 29°49' E 031°15'2 1.6
2015-Aug-05 09:33S 29°50' E 031°17'1 1.1
2015-Aug-05 08:33S 29°51' E 031°18'3 2.6
2015-Aug-05 07:33S 29°49' E 031°16'1 1.4
2015-Aug-05 06:33S 29°50' E 031°17'1 1.3
2015-Aug-05 05:33S 29°51' E 031°18'1 1.0
2015-Aug-05 04:33S 29°52' E 031°18'4 4.5
2015-Aug-05 03:33S 29°48' E 031°20'1 1.3
2015-Aug-05 02:33S 29°49' E 031°20'1 1.3
2015-Aug-05 01:33S 29°50' E 031°21'1 0.9
2015-Aug-05 00:33S 29°50' E 031°20'1 1.5
2015-Aug-04 23:33S 29°51' E 031°19'4 3.9
2015-Aug-04 22:33S 29°49' E 031°15'2 2.0
2015-Aug-04 21:33S 29°51' E 031°16'2 1.8
2015-Aug-04 20:33S 29°52' E 031°17'5 5.4
2015-Aug-04 19:33S 29°58' E 031°18'6 6.1
2015-Aug-04 18:33S 30°04' E 031°19'1 0.8
2015-Aug-04 17:33S 30°03' E 031°19'1 1.1
2015-Aug-04 16:33S 30°02' E 031°19'1 1.2
2015-Aug-04 15:31S 30°01' E 031°19'1 1.1
2015-Aug-04 14:31S 29°60' E 031°19'1 1.0
2015-Aug-04 13:31S 29°59' E 031°19'1 1.1
2015-Aug-04 12:31S 29°58' E 031°19'1 1.0
2015-Aug-04 11:31S 29°57' E 031°19'1 1.0
2015-Aug-04 10:31S 29°56' E 031°20'1 1.0
2015-Aug-04 09:31S 29°55' E 031°19'1 1.0
2015-Aug-04 08:31S 29°54' E 031°19'1 1.1
2015-Aug-04 07:31S 29°53' E 031°19'1 1.1
2015-Aug-04 06:33S 29°52' E 031°19'1 1.1
2015-Aug-04 05:33S 29°51' E 031°19'1 1.1
2015-Aug-04 04:33S 29°49' E 031°20'1 1.0
2015-Aug-04 03:34S 29°49' E 031°20'1 0.9
2015-Aug-04 02:33S 29°48' E 031°20'1 0.9
2015-Aug-04 01:33S 29°47' E 031°20'1 0.8
2015-Aug-04 00:33S 29°46' E 031°20'1 0.9
2015-Aug-03 23:34S 29°45' E 031°20'1 0.8
2015-Aug-03 22:33S 29°44' E 031°20'1 0.7
2015-Aug-03 21:34S 29°44' E 031°20'2 2.4
2015-Aug-03 20:34S 29°46' E 031°20'6 5.6
2015-Aug-03 19:33S 29°51' E 031°20'5 5.4
2015-Aug-03 18:34S 29°57' E 031°20'1 0.5
2015-Aug-03 17:33S 29°57' E 031°19'1 0.9
2015-Aug-03 16:34S 29°56' E 031°19'1 0.8
2015-Aug-03 15:34S 29°55' E 031°19'1 0.9
2015-Aug-03 14:33S 29°54' E 031°20'1 0.9
2015-Aug-03 13:34S 29°54' E 031°20'1 0.8
2015-Aug-03 12:33S 29°53' E 031°21'1 0.8
2015-Aug-03 11:34S 29°52' E 031°21'1 0.8
2015-Aug-03 10:33S 29°51' E 031°22'1 0.9
2015-Aug-03 09:34S 29°51' E 031°22'1 0.8
2015-Aug-03 08:34S 29°50' E 031°22'1 0.9
2015-Aug-03 07:34S 29°49' E 031°23'1 0.9
2015-Aug-03 06:34S 29°48' E 031°23'1 0.9
2015-Aug-03 05:33S 29°47' E 031°23'1 1.0
2015-Aug-03 04:34S 29°46' E 031°23'1 1.1
2015-Aug-03 03:33S 29°45' E 031°23'1 1.2
2015-Aug-03 02:33S 29°44' E 031°23'1 1.2
2015-Aug-03 01:34S 29°43' E 031°22'4 4.3
2015-Aug-03 00:34S 29°44' E 031°17'1 0.8
2015-Aug-02 23:33S 29°45' E 031°18'1 1.5
2015-Aug-02 22:34S 29°45' E 031°20'3 3.1
2015-Aug-02 21:33S 29°48' E 031°21'4 4.1
2015-Aug-02 20:33S 29°51' E 031°23'1 0.5
2015-Aug-02 19:33S 29°52' E 031°22'2 1.9
2015-Aug-02 18:34S 29°50' E 031°22'2 1.8
2015-Aug-02 17:33S 29°48' E 031°22'2 1.7
2015-Aug-02 16:33S 29°47' E 031°22'2 1.6
2015-Aug-02 15:33S 29°45' E 031°22'1 1.3
2015-Aug-02 14:33S 29°44' E 031°22'1 1.1
2015-Aug-02 13:33S 29°43' E 031°23'1 0.9
2015-Aug-02 12:33S 29°42' E 031°23'1 0.7
2015-Aug-02 11:34S 29°41' E 031°24'0 0.5
2015-Aug-02 10:33S 29°41' E 031°24'0 0.3
2015-Aug-02 09:33S 29°41' E 031°24'0 0.1
2015-Aug-02 08:34S 29°41' E 031°24'0 0.5
2015-Aug-02 07:33S 29°41' E 031°24'1 0.5
2015-Aug-02 06:33S 29°41' E 031°23'1 0.7
2015-Aug-02 05:34S 29°42' E 031°22'1 0.5
2015-Aug-02 04:33S 29°42' E 031°22'1 0.6
2015-Aug-02 03:34S 29°42' E 031°21'1 0.5
2015-Aug-02 02:33S 29°43' E 031°21'0 0.4
2015-Aug-02 01:33S 29°43' E 031°20'3 3.3
2015-Aug-02 00:33S 29°40' E 031°23'1 1.2
2015-Aug-01 23:34S 29°39' E 031°24'1 0.9
2015-Aug-01 22:34S 29°40' E 031°23'1 1.0
2015-Aug-01 21:33S 29°41' E 031°23'1 1.1
2015-Aug-01 20:34S 29°42' E 031°22'1 1.1
2015-Aug-01 19:31S 29°43' E 031°21'1 0.8
2015-Aug-01 18:31S 29°43' E 031°20'2 2.2
2015-Aug-01 17:32S 29°41' E 031°20'1 0.7
2015-Aug-01 16:32S 29°42' E 031°20'1 0.7
2015-Aug-01 15:29S 29°42' E 031°20'0 0.4
2015-Aug-01 14:34S 29°42' E 031°20'2 2.3
2015-Aug-01 13:33S 29°40' E 031°22'1 1.1
2015-Aug-01 12:32S 29°41' E 031°21'1 1.2
2015-Aug-01 11:32S 29°42' E 031°21'1 1.5
2015-Aug-01 10:34S 29°44' E 031°20'2 2.4
2015-Aug-01 09:33S 29°46' E 031°20'6 5.7
2015-Aug-01 08:33S 29°52' E 031°21'6 5.8
2015-Aug-01 07:33S 29°58' E 031°21'6 5.9
2015-Aug-01 06:34S 30°03' E 031°20'6 5.7
2015-Aug-01 05:33S 30°09' E 031°18'6 5.5
2015-Aug-01 04:33S 30°14' E 031°18'5 5.4
2015-Aug-01 03:33S 30°20' E 031°17'6 2.1
2015-Aug-01 00:32S 30°14' E 031°16'3 3.2
2015-Jul-31 23:31S 30°10' E 031°15'2 2.5
2015-Jul-31 22:33S 30°08' E 031°15'2 2.4
2015-Jul-31 21:33S 30°05' E 031°15'4 3.9
2015-Jul-31 20:33S 30°01' E 031°15'5 5.1
2015-Jul-31 19:34S 29°56' E 031°15'5 4.9
2015-Jul-31 18:33S 29°52' E 031°15'6 5.5
2015-Jul-31 17:34S 29°46' E 031°15'4 4.1
2015-Jul-31 16:31S 29°43' E 031°12'0 0.1
2015-Jul-31 15:31S 29°43' E 031°12'0 0.1
2015-Jul-31 14:25S 29°42' E 031°12'0 0.0
2015-Jul-31 13:31S 29°42' E 031°12'0 0.1
2015-Jul-31 12:31S 29°43' E 031°12'0 0.0
2015-Jul-31 11:32S 29°43' E 031°12'0 0.1
2015-Jul-31 10:32S 29°43' E 031°12'0 0.1
2015-Jul-31 09:30S 29°43' E 031°12'0 0.0
2015-Jul-31 08:33S 29°43' E 031°12'0 0.1
2015-Jul-31 07:32S 29°43' E 031°12'0 0.0
2015-Jul-31 06:29S 29°42' E 031°12'0 0.1
2015-Jul-31 05:32S 29°43' E 031°12'0 0.1
2015-Jul-31 04:32S 29°42' E 031°12'0 0.0
2015-Jul-31 03:32S 29°43' E 031°12'0 0.1
2015-Jul-31 02:32S 29°43' E 031°12'0 0.0
2015-Jul-31 01:32S 29°43' E 031°12'0 0.0
2015-Jul-31 00:32S 29°43' E 031°12'0 0.0
2015-Jul-30 23:32S 29°43' E 031°12'0 0.0
2015-Jul-30 22:32S 29°43' E 031°12'0 0.0
2015-Jul-30 21:32S 29°43' E 031°12'0 0.0
2015-Jul-30 20:32S 29°43' E 031°12'0 0.0
2015-Jul-30 19:29S 29°43' E 031°12'0 0.0
2015-Jul-30 18:32S 29°43' E 031°12'0 0.0
2015-Jul-30 17:32S 29°43' E 031°12'0 0.0
2015-Jul-30 16:32S 29°43' E 031°12'0 0.0
2015-Jul-30 15:32S 29°43' E 031°12'0 0.0
2015-Jul-30 14:32S 29°43' E 031°12'0 0.0
2015-Jul-30 13:32S 29°43' E 031°12'0 0.0
2015-Jul-30 12:32S 29°43' E 031°12'0 0.0
2015-Jul-30 11:32S 29°43' E 031°12'0 0.0
2015-Jul-30 10:32S 29°43' E 031°12'0 0.0
2015-Jul-30 09:32S 29°43' E 031°12'0 0.0
2015-Jul-30 08:32S 29°43' E 031°12'0 0.0
2015-Jul-30 07:32S 29°43' E 031°12'0 0.0
2015-Jul-30 06:32S 29°43' E 031°12'0 0.0
2015-Jul-30 05:32S 29°43' E 031°12'0 0.0
2015-Jul-30 04:32S 29°43' E 031°12'0 0.0
2015-Jul-30 03:32S 29°43' E 031°12'0 0.0
2015-Jul-30 02:32S 29°43' E 031°12'0 0.0
2015-Jul-30 01:32S 29°43' E 031°12'0 0.0
2015-Jul-30 00:32S 29°42' E 031°12'0 0.0
2015-Jul-29 23:32S 29°43' E 031°12'0 0.0
2015-Jul-29 22:32S 29°43' E 031°12'0 0.0
2015-Jul-29 21:29S 29°43' E 031°12'0 0.0
2015-Jul-29 20:32S 29°42' E 031°12'0 0.0
2015-Jul-29 19:32S 29°43' E 031°12'0 0.0
2015-Jul-29 18:32S 29°42' E 031°12'0 0.3
2015-Jul-29 17:32S 29°43' E 031°12'0 0.0
2015-Jul-29 16:32S 29°43' E 031°12'0 0.0
2015-Jul-29 15:32S 29°43' E 031°12'0 0.0
2015-Jul-29 14:32S 29°43' E 031°12'0 0.0
2015-Jul-29 13:32S 29°43' E 031°12'0 0.0
2015-Jul-29 12:32S 29°43' E 031°12'0 0.0
2015-Jul-29 11:29S 29°43' E 031°12'0 0.0
2015-Jul-29 10:32S 29°43' E 031°12'0 0.0
2015-Jul-29 09:32S 29°43' E 031°12'0 0.0
2015-Jul-29 08:32S 29°43' E 031°12'0 0.0
2015-Jul-29 07:32S 29°43' E 031°12'0 0.0
2015-Jul-29 06:32S 29°43' E 031°12'0 0.0
2015-Jul-29 05:32S 29°43' E 031°12'0 0.0
2015-Jul-29 04:32S 29°43' E 031°12'0 0.0
2015-Jul-29 03:32S 29°43' E 031°12'0 0.0
2015-Jul-29 02:29S 29°43' E 031°12'0 0.0
2015-Jul-29 01:32S 29°43' E 031°12'0 0.0
2015-Jul-29 00:32S 29°43' E 031°12'0 0.0
2015-Jul-28 23:32S 29°43' E 031°12'0 0.0
2015-Jul-28 22:32S 29°43' E 031°12'0 0.0
2015-Jul-28 21:32S 29°43' E 031°12'0 0.0
2015-Jul-28 20:32S 29°43' E 031°12'0 0.0
2015-Jul-28 19:32S 29°43' E 031°12'0 0.0
2015-Jul-28 18:32S 29°43' E 031°12'0 0.0
2015-Jul-28 17:32S 29°43' E 031°12'0 0.0
2015-Jul-28 16:32S 29°43' E 031°12'0 0.0
2015-Jul-28 15:29S 29°43' E 031°12'0 0.0
2015-Jul-28 14:32S 29°43' E 031°12'0 0.0
2015-Jul-28 13:32S 29°43' E 031°12'0 0.0
2015-Jul-28 12:32S 29°43' E 031°12'0 0.0
2015-Jul-28 11:32S 29°43' E 031°12'0 0.0
2015-Jul-28 10:32S 29°43' E 031°12'2 1.8
2015-Jul-28 09:33S 29°43' E 031°14'  

Dump ship's entire track history